Killington, VT

12:44 AM EST on February 28, 2015 (GMT -0500)
Fiore Property Services | Change Station
CLOSE
Current Station
Personal Weather Station
Location: Killington, VT
Elevation: 1768 ft
Nearby Weather Stations

Elev 1768 ft 43.65 °N, 72.79 °W | Updated 3 seconds ago

Clear
Clear
2.1 °F
Feels Like 2 °F
N
0.0
Wind Variable Wind from East
Gusts 0.0 mph

Today
High -- | Low -- °F
--% Chance of Precip.
Yesterday
High -- | Low -- °F
Precip. -- in
6:29 AM 5:38 PM
Waxing Gibbous, 74% visible
Pressure 30.54 in
Visibility 10.0 miles
Clouds Clear
Windchill 2 °F
Dew Point -9 °F
Humidity 58%
Rainfall 0.00 in
Snow Depth Not available.
UV 0.0 out of 12
Pollen .30 out of 12
Air Quality Not available.
Flu Activity Not available.
METAR KRUT 280535Z 00000KT 10SM CLR M15/M22 A3054 RMK AO1

More Conditions Fewer Conditions

Pressure 30.54 in
Visibility 10.0 miles
Clouds Clear
Windchill 2 °F
Dew Point -9 °F
Humidity 58%
Rainfall 0.00 in
Snow Depth Not available.
UV 0.0 out of 12
Pollen .30 out of 12
Air Quality Not available.
Flu Activity Not available.
METAR KRUT 280535Z 00000KT 10SM CLR M15/M22 A3054 RMK AO1

More Conditions Fewer Conditions

10-Day Weather Forecast

Almanac

Astronomy

Feb. 28, 2015 Rise Set
Actual Time
Civil Twilight
Nautical Twilight
Astronomical Twilight
Moon
Length of Visible Light
Length of Day
Tomorrow will be .
, % of the Moon is Illuminated

Today's Extremes

State Highs State Lows

Community

WunderPhotos

Upload Photos

1,800,972 photos uploaded!

WunderBlogs® & News

Nearby

Air Quality

  Air Quality AQ Index Pollutant
Not available.

Snow Depth

Station Depth Elevation

Earthquake Activity

City Distance Mag. Time & Date
Minimum magnitude displayed is 2.5.

Coastal Water Temperatures

Place Temperature

Nearby Weather Stations